createdAt,value
2019-05-26T00:01:12.620Z,15.14
2019-05-26T00:03:41.761Z,15.21
2019-05-26T00:06:10.925Z,15.19
2019-05-26T00:08:40.031Z,15.23
2019-05-26T00:11:09.193Z,15.27
2019-05-26T00:13:38.332Z,15.29
2019-05-26T00:16:07.439Z,15.32
2019-05-26T00:18:36.564Z,15.31
2019-05-26T00:21:05.698Z,15.36
2019-05-26T00:23:34.966Z,15.34
2019-05-26T00:26:04.195Z,15.30
2019-05-26T00:28:33.363Z,15.28
2019-05-26T00:31:02.558Z,15.22
2019-05-26T00:33:31.678Z,15.20
2019-05-26T00:36:00.797Z,15.19
2019-05-26T00:38:29.906Z,15.16
2019-05-26T00:40:59.074Z,15.16
2019-05-26T00:43:28.191Z,15.08
2019-05-26T00:45:57.315Z,15.00
2019-05-26T00:48:26.454Z,14.92
2019-05-26T00:50:55.571Z,14.91
2019-05-26T00:53:24.727Z,14.92
2019-05-26T00:55:53.869Z,14.91
2019-05-26T00:58:22.991Z,14.87
2019-05-26T01:00:52.143Z,14.91
2019-05-26T01:03:21.308Z,14.96
2019-05-26T01:05:50.734Z,14.99
2019-05-26T01:08:19.838Z,15.02
2019-05-26T01:10:49.020Z,15.05
2019-05-26T01:13:18.086Z,15.08
2019-05-26T01:15:47.384Z,15.08
2019-05-26T01:18:16.583Z,15.07
2019-05-26T01:20:45.688Z,15.03
2019-05-26T01:23:14.812Z,15.02
2019-05-26T01:25:44.424Z,15.02
2019-05-26T01:28:13.586Z,15.03
2019-05-26T01:30:42.800Z,15.00
2019-05-26T01:33:11.916Z,15.01
2019-05-26T01:35:41.746Z,15.01
2019-05-26T01:38:23.144Z,14.99
2019-05-26T01:40:43.913Z,14.98
2019-05-26T01:43:13.052Z,14.98
2019-05-26T01:45:42.145Z,14.78
2019-05-26T01:48:11.371Z,14.68
2019-05-26T01:50:40.494Z,14.67
2019-05-26T01:53:09.624Z,14.71
2019-05-26T01:55:38.786Z,14.69
2019-05-26T01:58:07.933Z,14.69
2019-05-26T02:00:37.047Z,14.70
2019-05-26T02:03:06.365Z,14.74
2019-05-26T02:05:37.863Z,14.78
2019-05-26T02:08:06.356Z,14.79
2019-05-26T02:10:35.571Z,14.81
2019-05-26T02:13:04.782Z,14.83
2019-05-26T02:15:34.060Z,14.85
2019-05-26T02:18:03.273Z,14.86
2019-05-26T02:20:32.451Z,14.88
2019-05-26T02:23:01.569Z,14.88
2019-05-26T02:25:30.676Z,14.87
2019-05-26T02:27:59.871Z,14.87
2019-05-26T02:30:28.962Z,14.84
2019-05-26T02:32:58.144Z,14.84
2019-05-26T02:35:27.320Z,14.85
2019-05-26T02:37:56.483Z,14.84
2019-05-26T02:40:25.892Z,14.81
2019-05-26T02:42:55.040Z,14.80
2019-05-26T02:45:24.565Z,14.76
2019-05-26T02:47:53.680Z,14.74
2019-05-26T02:50:22.953Z,14.72
2019-05-26T02:52:52.122Z,14.61
2019-05-26T02:55:21.339Z,14.56
2019-05-26T02:57:50.482Z,14.57
2019-05-26T03:00:36.369Z,14.52
2019-05-26T03:03:05.735Z,14.43
2019-05-26T03:05:34.832Z,14.45
2019-05-26T03:08:04.071Z,14.41
2019-05-26T03:10:34.396Z,14.37
2019-05-26T03:13:05.609Z,14.39
2019-05-26T03:15:35.666Z,14.38
2019-05-26T03:18:06.479Z,14.43
2019-05-26T03:20:40.742Z,14.38
2019-05-26T03:23:10.432Z,14.40
2019-05-26T03:25:40.082Z,14.33
2019-05-26T03:28:09.701Z,14.26
2019-05-26T03:30:39.336Z,14.28
2019-05-26T03:33:08.470Z,14.31
2019-05-26T03:35:37.564Z,14.35
2019-05-26T03:38:06.801Z,14.39
2019-05-26T03:40:35.915Z,14.43
2019-05-26T03:43:04.997Z,14.35
2019-05-26T03:46:16.358Z,14.19
2019-05-26T03:48:45.467Z,14.21
2019-05-26T03:51:15.022Z,14.20
2019-05-26T03:53:44.119Z,14.24
2019-05-26T03:56:13.198Z,14.17
2019-05-26T03:58:42.410Z,14.20
2019-05-26T04:01:11.573Z,14.25
2019-05-26T04:03:40.685Z,14.24
2019-05-26T04:06:09.968Z,14.16
2019-05-26T04:08:39.141Z,14.19
2019-05-26T04:11:08.490Z,14.18
2019-05-26T04:13:37.610Z,14.17
2019-05-26T04:16:06.712Z,14.10
2019-05-26T04:18:35.812Z,14.06
2019-05-26T04:21:05.192Z,14.01
2019-05-26T04:23:34.347Z,14.03
2019-05-26T04:26:03.475Z,14.08
2019-05-26T04:28:32.637Z,14.16
2019-05-26T04:31:01.983Z,14.24
2019-05-26T04:33:31.113Z,14.32
2019-05-26T04:36:00.203Z,14.38
2019-05-26T04:38:29.350Z,14.40
2019-05-26T04:40:58.475Z,14.40
2019-05-26T04:43:27.612Z,14.35
2019-05-26T04:45:56.839Z,14.32
2019-05-26T04:48:26.087Z,14.37
2019-05-26T04:50:55.172Z,14.42
2019-05-26T04:53:24.358Z,14.46
2019-05-26T04:55:53.529Z,14.48
2019-05-26T04:58:22.768Z,14.57
2019-05-26T05:00:51.874Z,14.63
2019-05-26T05:03:21.107Z,14.67
2019-05-26T05:05:50.259Z,14.61
2019-05-26T05:08:19.403Z,14.52
2019-05-26T05:10:48.652Z,14.56
2019-05-26T05:13:17.808Z,14.52
2019-05-26T05:15:46.911Z,14.48
2019-05-26T05:18:16.024Z,14.51
2019-05-26T05:20:45.143Z,14.50
2019-05-26T05:23:14.264Z,14.48
2019-05-26T05:25:43.396Z,14.50
2019-05-26T05:28:12.495Z,14.54
2019-05-26T05:30:41.600Z,14.59
2019-05-26T05:33:10.823Z,14.68
2019-05-26T05:35:41.636Z,14.73
2019-05-26T05:38:10.812Z,14.82
2019-05-26T05:40:40.019Z,14.86
2019-05-26T05:43:09.173Z,14.89
2019-05-26T05:45:38.301Z,14.98
2019-05-26T05:48:07.535Z,14.94
2019-05-26T05:50:39.130Z,14.97
2019-05-26T05:53:07.484Z,15.00
2019-05-26T05:55:36.620Z,14.96
2019-05-26T05:58:05.768Z,15.05
2019-05-26T06:00:34.966Z,15.04
2019-05-26T06:03:04.140Z,15.16
2019-05-26T06:05:33.331Z,15.24
2019-05-26T06:08:02.501Z,15.36
2019-05-26T06:10:31.630Z,15.37
2019-05-26T06:13:00.807Z,15.28
2019-05-26T06:15:29.949Z,15.32
2019-05-26T06:17:59.263Z,15.31
2019-05-26T06:20:28.543Z,15.23
2019-05-26T06:22:57.666Z,15.28
2019-05-26T06:25:26.979Z,15.33
2019-05-26T06:27:56.144Z,15.42
2019-05-26T06:30:25.252Z,15.52
2019-05-26T06:32:54.508Z,15.60
2019-05-26T06:35:23.711Z,15.65
2019-05-26T06:37:52.892Z,15.64
2019-05-26T06:40:22.036Z,15.71
2019-05-26T06:42:51.160Z,15.75
2019-05-26T06:45:20.693Z,15.82
2019-05-26T06:47:49.852Z,15.85
2019-05-26T06:50:19.047Z,15.77
2019-05-26T06:52:48.197Z,15.78
2019-05-26T06:55:17.328Z,15.90
2019-05-26T06:57:46.474Z,15.99
2019-05-26T07:00:16.055Z,15.86
2019-05-26T07:02:45.180Z,15.88
2019-05-26T07:05:18.259Z,15.93
2019-05-26T07:07:45.255Z,15.90
2019-05-26T07:10:14.460Z,15.97
2019-05-26T07:12:43.734Z,15.85
2019-05-26T07:15:14.342Z,15.78
2019-05-26T07:17:43.544Z,15.82
2019-05-26T07:20:13.192Z,15.97
2019-05-26T07:22:42.388Z,15.93
2019-05-26T07:25:11.727Z,15.96
2019-05-26T07:27:40.849Z,16.10
2019-05-26T07:30:10.873Z,16.21
2019-05-26T07:32:40.301Z,16.31
2019-05-26T07:35:09.667Z,16.40
2019-05-26T07:37:38.819Z,16.55
2019-05-26T07:40:09.283Z,16.61
2019-05-26T07:42:38.427Z,16.68
2019-05-26T07:45:07.997Z,16.67
2019-05-26T07:47:37.157Z,16.66
2019-05-26T07:50:06.410Z,16.54
2019-05-26T07:52:35.585Z,16.63
2019-05-26T07:55:05.366Z,16.72
2019-05-26T07:57:34.509Z,16.71
2019-05-26T08:00:03.922Z,16.73
2019-05-26T08:02:33.042Z,16.81
2019-05-26T08:05:02.185Z,16.87
2019-05-26T08:07:31.413Z,16.95
2019-05-26T08:10:00.678Z,16.90
2019-05-26T08:12:30.815Z,16.83
2019-05-26T08:14:59.996Z,16.95
2019-05-26T08:17:29.164Z,17.03
2019-05-26T08:19:58.337Z,17.14
2019-05-26T08:22:27.591Z,17.07
2019-05-26T08:24:56.732Z,17.12
2019-05-26T08:27:25.934Z,17.20
2019-05-26T08:29:55.026Z,17.09
2019-05-26T08:32:24.232Z,17.14
2019-05-26T08:34:53.351Z,17.13
2019-05-26T08:37:22.522Z,17.09
2019-05-26T08:39:51.677Z,17.05
2019-05-26T08:42:28.750Z,17.20
2019-05-26T08:44:51.708Z,17.38
2019-05-26T08:47:20.941Z,17.47
2019-05-26T08:49:50.041Z,17.58
2019-05-26T08:52:19.303Z,17.59
2019-05-26T08:54:48.667Z,17.64
2019-05-26T08:57:17.817Z,17.64
2019-05-26T08:59:47.069Z,17.78
2019-05-26T09:02:16.214Z,17.88
2019-05-26T09:04:45.388Z,17.99
2019-05-26T09:07:14.588Z,18.06
2019-05-26T09:09:43.856Z,18.14
2019-05-26T09:12:12.954Z,18.06
2019-05-26T09:14:42.186Z,18.12
2019-05-26T09:17:11.316Z,18.28
2019-05-26T09:19:40.471Z,18.33
2019-05-26T09:22:09.594Z,18.37
2019-05-26T09:24:38.770Z,18.30
2019-05-26T09:27:08.084Z,18.41
2019-05-26T09:29:37.298Z,18.36
2019-05-26T09:32:06.667Z,18.48
2019-05-26T09:34:35.908Z,18.60
2019-05-26T09:37:05.125Z,18.77
2019-05-26T09:39:34.276Z,18.65
2019-05-26T09:42:03.415Z,18.74
2019-05-26T09:44:32.715Z,18.75
2019-05-26T09:47:01.910Z,18.77
2019-05-26T09:49:31.103Z,18.68
2019-05-26T09:52:00.475Z,18.76
2019-05-26T09:54:29.624Z,18.92
2019-05-26T09:56:59.042Z,19.03
2019-05-26T09:59:28.229Z,19.01
2019-05-26T10:01:57.473Z,19.11
2019-05-26T10:04:26.624Z,19.19
2019-05-26T10:06:55.814Z,19.21
2019-05-26T10:09:25.022Z,19.25
2019-05-26T10:11:54.190Z,19.20
2019-05-26T10:14:23.370Z,19.40
2019-05-26T10:16:52.520Z,19.57
2019-05-26T10:19:21.693Z,19.63
2019-05-26T10:21:50.881Z,19.68
2019-05-26T10:24:20.019Z,19.75
2019-05-26T10:26:49.213Z,19.44
2019-05-26T10:29:18.478Z,19.51
2019-05-26T10:31:47.684Z,19.46
2019-05-26T10:34:16.882Z,19.62
2019-05-26T10:36:46.097Z,19.67
2019-05-26T10:39:15.238Z,19.81
2019-05-26T10:41:44.485Z,19.93
2019-05-26T10:44:13.612Z,20.04
2019-05-26T10:46:42.759Z,19.95
2019-05-26T10:49:12.014Z,20.10
2019-05-26T10:51:41.181Z,20.07
2019-05-26T10:54:10.373Z,20.05
2019-05-26T10:56:39.514Z,20.19
2019-05-26T10:59:08.650Z,20.36
2019-05-26T11:01:37.826Z,20.48
2019-05-26T11:04:07.053Z,20.64
2019-05-26T11:06:37.430Z,20.78
2019-05-26T11:09:08.935Z,20.91
2019-05-26T11:11:38.097Z,21.03
2019-05-26T11:14:07.386Z,21.01
2019-05-26T11:16:36.683Z,21.08
2019-05-26T11:19:05.900Z,21.18
2019-05-26T11:21:35.107Z,21.29
2019-05-26T11:24:04.303Z,21.26
2019-05-26T11:26:33.429Z,21.31
2019-05-26T11:29:02.646Z,21.45
2019-05-26T11:31:31.800Z,21.26
2019-05-26T11:34:00.939Z,20.95
2019-05-26T11:36:30.121Z,20.87
2019-05-26T11:38:59.415Z,20.82
2019-05-26T11:41:28.707Z,20.67
2019-05-26T11:43:57.984Z,20.96
2019-05-26T11:46:27.179Z,21.05
2019-05-26T11:48:56.361Z,21.31
2019-05-26T11:51:25.550Z,21.35
2019-05-26T11:53:54.790Z,21.23
2019-05-26T11:56:23.975Z,21.23
2019-05-26T11:58:53.081Z,20.97
2019-05-26T12:01:23.201Z,20.91
2019-05-26T12:03:52.603Z,20.80
2019-05-26T12:06:21.807Z,20.59
2019-05-26T12:08:51.066Z,20.65
2019-05-26T12:11:20.449Z,20.72
2019-05-26T12:13:49.583Z,20.61
2019-05-26T12:16:18.825Z,20.71
2019-05-26T12:18:48.150Z,20.66
2019-05-26T12:21:17.412Z,20.73
2019-05-26T12:23:46.639Z,20.86
2019-05-26T12:26:15.824Z,20.93
2019-05-26T12:28:44.915Z,20.94
2019-05-26T12:31:14.084Z,20.84
2019-05-26T12:33:43.327Z,20.91
2019-05-26T12:36:12.625Z,20.82
2019-05-26T12:38:53.889Z,20.80
2019-05-26T12:41:23.620Z,20.89
2019-05-26T12:43:52.814Z,20.92
2019-05-26T12:46:21.969Z,21.06
2019-05-26T12:48:51.157Z,20.94
2019-05-26T12:51:20.307Z,20.80
2019-05-26T12:53:49.477Z,20.95
2019-05-26T12:56:18.615Z,21.17
2019-05-26T12:58:47.799Z,21.36
2019-05-26T13:01:16.959Z,21.39
2019-05-26T13:03:46.114Z,21.46
2019-05-26T13:06:17.557Z,21.73
2019-05-26T13:08:46.135Z,21.71
2019-05-26T13:11:15.218Z,21.76
2019-05-26T13:13:44.454Z,21.84
2019-05-26T13:16:13.637Z,21.97
2019-05-26T13:18:42.864Z,22.06
2019-05-26T13:21:11.996Z,22.01
2019-05-26T13:23:41.151Z,22.04
2019-05-26T13:26:10.261Z,22.12
2019-05-26T13:28:39.376Z,22.14
2019-05-26T13:31:08.512Z,21.90
2019-05-26T13:33:37.803Z,21.98
2019-05-26T13:36:06.963Z,22.16
2019-05-26T13:38:36.169Z,22.07
2019-05-26T13:41:05.368Z,22.15
2019-05-26T13:43:34.536Z,22.01
2019-05-26T13:46:03.657Z,22.31
2019-05-26T13:48:32.908Z,22.62
2019-05-26T13:51:02.239Z,22.83
2019-05-26T13:53:31.465Z,22.90
2019-05-26T13:56:00.618Z,22.88
2019-05-26T13:58:29.778Z,23.05
2019-05-26T14:00:58.919Z,23.03
2019-05-26T14:03:28.090Z,23.08
2019-05-26T14:05:57.317Z,23.02
2019-05-26T14:08:26.496Z,23.00
2019-05-26T14:10:55.679Z,23.14
2019-05-26T14:13:24.860Z,23.37
2019-05-26T14:15:56.277Z,23.52
2019-05-26T14:18:25.940Z,23.67
2019-05-26T14:20:57.077Z,23.71
2019-05-26T14:23:26.232Z,23.83
2019-05-26T14:25:55.421Z,23.55
2019-05-26T14:28:24.587Z,23.48
2019-05-26T14:30:53.753Z,23.56
2019-05-26T14:33:22.907Z,23.73
2019-05-26T14:35:52.150Z,23.96
2019-05-26T14:38:21.294Z,24.21
2019-05-26T14:40:50.460Z,24.32
2019-05-26T14:43:19.588Z,24.42
2019-05-26T14:45:53.203Z,23.99
2019-05-26T14:48:19.870Z,23.69
2019-05-26T14:50:49.047Z,23.47
2019-05-26T14:53:18.217Z,23.46
2019-05-26T14:55:47.424Z,23.41
2019-05-26T14:58:16.973Z,23.46
2019-05-26T15:00:46.359Z,23.31
2019-05-26T15:03:15.532Z,23.44
2019-05-26T15:05:44.974Z,23.34
2019-05-26T15:08:15.262Z,23.04
2019-05-26T15:10:44.477Z,23.01
2019-05-26T15:13:13.763Z,23.14
2019-05-26T15:15:42.873Z,22.98
2019-05-26T15:18:12.007Z,22.85
2019-05-26T15:20:41.233Z,22.79
2019-05-26T15:23:10.401Z,22.85
2019-05-26T15:25:39.662Z,22.91
2019-05-26T15:28:08.918Z,22.99
2019-05-26T15:30:38.103Z,23.04
2019-05-26T15:33:07.266Z,23.07
2019-05-26T15:35:36.434Z,23.45
2019-05-26T15:38:05.606Z,23.63
2019-05-26T15:40:34.802Z,23.87
2019-05-26T15:43:03.972Z,24.35
2019-05-26T15:45:33.157Z,24.61
2019-05-26T15:48:02.295Z,24.72
2019-05-26T15:50:31.460Z,25.08
2019-05-26T15:53:00.624Z,24.99
2019-05-26T15:55:29.772Z,24.37
2019-05-26T15:57:58.956Z,24.35
2019-05-26T16:00:28.163Z,23.91
2019-05-26T16:02:57.288Z,23.79
2019-05-26T16:05:26.465Z,23.73
2019-05-26T16:07:55.616Z,24.13
2019-05-26T16:10:24.770Z,24.63
2019-05-26T16:12:53.892Z,24.55
2019-05-26T16:15:23.269Z,24.51
2019-05-26T16:17:52.406Z,24.72
2019-05-26T16:20:22.184Z,24.81
2019-05-26T16:22:51.338Z,25.02
2019-05-26T16:25:20.543Z,24.78
2019-05-26T16:27:49.850Z,24.90
2019-05-26T16:30:18.991Z,24.79
2019-05-26T16:32:48.133Z,24.58
2019-05-26T16:35:17.373Z,24.39
2019-05-26T16:37:46.629Z,23.78
2019-05-26T16:40:16.071Z,23.70
2019-05-26T16:42:45.223Z,23.55
2019-05-26T16:45:14.889Z,23.47
2019-05-26T16:47:44.053Z,23.08
2019-05-26T16:50:13.533Z,23.01
2019-05-26T16:52:42.714Z,22.98
2019-05-26T16:55:12.154Z,22.76
2019-05-26T16:57:41.352Z,22.79
2019-05-26T17:00:10.737Z,22.83
2019-05-26T17:02:39.890Z,22.66
2019-05-26T17:05:09.136Z,22.48
2019-05-26T17:07:38.510Z,22.22
2019-05-26T17:10:08.289Z,22.18
2019-05-26T17:12:37.567Z,21.99
2019-05-26T17:15:07.157Z,22.02
2019-05-26T17:17:36.368Z,22.00
2019-05-26T17:20:06.839Z,21.92
2019-05-26T17:22:36.065Z,21.88
2019-05-26T17:25:06.372Z,21.95
2019-05-26T17:27:35.650Z,21.93
2019-05-26T17:30:06.622Z,21.92
2019-05-26T17:32:35.884Z,21.82
2019-05-26T17:35:05.593Z,21.81
2019-05-26T17:37:34.963Z,21.76
2019-05-26T17:40:06.079Z,21.72
2019-05-26T17:42:35.681Z,21.68
2019-05-26T17:45:05.687Z,21.72
2019-05-26T17:47:34.878Z,21.72
2019-05-26T17:50:05.549Z,21.71
2019-05-26T17:52:35.922Z,21.56
2019-05-26T17:55:06.209Z,21.54
2019-05-26T17:57:37.226Z,21.35
2019-05-26T18:00:07.866Z,21.29
2019-05-26T18:02:37.221Z,21.31
2019-05-26T18:05:08.625Z,21.32
2019-05-26T18:07:37.812Z,21.31
2019-05-26T18:10:08.704Z,21.21
2019-05-26T18:12:37.912Z,21.08
2019-05-26T18:15:09.422Z,21.08
2019-05-26T18:17:46.796Z,21.04
2019-05-26T18:20:09.790Z,21.04
2019-05-26T18:22:39.024Z,20.98
2019-05-26T18:25:09.098Z,20.96
2019-05-26T18:27:38.382Z,20.91
2019-05-26T18:30:09.551Z,20.88
2019-05-26T18:32:38.812Z,20.88
2019-05-26T18:35:09.431Z,20.86
2019-05-26T18:37:39.052Z,20.83
2019-05-26T18:40:08.741Z,20.80
2019-05-26T18:42:38.095Z,20.76
2019-05-26T18:45:08.931Z,20.71
2019-05-26T18:47:38.157Z,20.66
2019-05-26T18:50:07.669Z,20.60
2019-05-26T18:52:36.953Z,20.52
2019-05-26T18:55:07.982Z,20.46
2019-05-26T18:57:37.567Z,20.41
2019-05-26T19:00:07.643Z,20.34
2019-05-26T19:02:37.019Z,20.29
2019-05-26T19:05:06.841Z,20.22
2019-05-26T19:07:36.051Z,20.16
2019-05-26T19:10:06.370Z,20.06
2019-05-26T19:12:35.609Z,19.98
2019-05-26T19:15:05.578Z,19.85
2019-05-26T19:17:35.944Z,19.73
2019-05-26T19:20:15.505Z,19.63
2019-05-26T19:22:38.090Z,19.53
2019-05-26T19:25:07.562Z,19.46
2019-05-26T19:27:36.841Z,19.36
2019-05-26T19:30:06.641Z,19.34
2019-05-26T19:32:35.874Z,19.30
2019-05-26T19:35:05.798Z,19.27
2019-05-26T19:37:35.013Z,19.22
2019-05-26T19:40:04.607Z,19.18
2019-05-26T19:42:33.938Z,19.15
2019-05-26T19:45:03.184Z,19.09
2019-05-26T19:47:32.368Z,19.01
2019-05-26T19:50:01.670Z,18.99
2019-05-26T19:52:30.852Z,18.91
2019-05-26T19:54:59.991Z,18.82
2019-05-26T19:57:29.260Z,18.78
2019-05-26T19:59:58.460Z,18.75
2019-05-26T20:02:27.609Z,18.71
2019-05-26T20:04:56.784Z,18.70
2019-05-26T20:07:26.140Z,18.63
2019-05-26T20:09:55.297Z,18.57
2019-05-26T20:12:24.494Z,18.54
2019-05-26T20:14:53.707Z,18.50
2019-05-26T20:17:22.861Z,18.40
2019-05-26T20:19:52.067Z,18.38
2019-05-26T20:22:24.379Z,18.33
2019-05-26T20:24:52.269Z,18.28
2019-05-26T20:27:21.446Z,18.21
2019-05-26T20:29:50.591Z,18.20
2019-05-26T20:32:19.755Z,18.13
2019-05-26T20:34:48.966Z,18.10
2019-05-26T20:37:18.098Z,18.07
2019-05-26T20:39:47.504Z,18.02
2019-05-26T20:42:16.719Z,17.97
2019-05-26T20:44:46.013Z,17.94
2019-05-26T20:47:15.243Z,17.86
2019-05-26T20:49:45.934Z,17.84
2019-05-26T20:52:15.355Z,17.78
2019-05-26T20:54:44.605Z,17.74
2019-05-26T20:57:15.278Z,17.64
2019-05-26T20:59:44.558Z,17.58
2019-05-26T21:02:13.762Z,17.48
2019-05-26T21:04:43.004Z,17.45
2019-05-26T21:07:12.222Z,17.41
2019-05-26T21:09:41.447Z,17.40
2019-05-26T21:12:10.621Z,17.36
2019-05-26T21:14:39.782Z,17.31
2019-05-26T21:17:08.963Z,17.25
2019-05-26T21:19:38.202Z,17.19
2019-05-26T21:22:07.391Z,17.14
2019-05-26T21:24:36.576Z,17.14
2019-05-26T21:27:06.004Z,17.11
2019-05-26T21:29:35.166Z,17.09
2019-05-26T21:32:04.369Z,17.05
2019-05-26T21:34:33.570Z,17.04
2019-05-26T21:37:02.728Z,17.01
2019-05-26T21:39:31.932Z,16.95
2019-05-26T21:42:01.130Z,16.92
2019-05-26T21:44:30.343Z,16.86
2019-05-26T21:46:59.660Z,16.81
2019-05-26T21:49:28.895Z,16.79
2019-05-26T21:51:58.115Z,16.75
2019-05-26T21:54:27.381Z,16.69
2019-05-26T21:56:56.573Z,16.59
2019-05-26T21:59:25.736Z,16.58
2019-05-26T22:01:54.880Z,16.49
2019-05-26T22:04:24.021Z,16.49
2019-05-26T22:06:53.131Z,16.42
2019-05-26T22:09:22.288Z,16.40
2019-05-26T22:11:51.417Z,16.39
2019-05-26T22:14:20.556Z,16.39
2019-05-26T22:16:49.768Z,16.39
2019-05-26T22:19:18.945Z,16.29
2019-05-26T22:21:48.091Z,16.25
2019-05-26T22:24:17.424Z,16.25
2019-05-26T22:26:46.612Z,16.23
2019-05-26T22:29:15.787Z,16.24
2019-05-26T22:31:44.983Z,16.20
2019-05-26T22:34:14.136Z,16.22
2019-05-26T22:36:43.285Z,16.18
2019-05-26T22:39:12.548Z,16.16
2019-05-26T22:41:41.665Z,16.13
2019-05-26T22:44:10.781Z,16.11
2019-05-26T22:46:39.957Z,16.08
2019-05-26T22:49:09.155Z,16.05
2019-05-26T22:51:38.386Z,16.02
2019-05-26T22:54:07.450Z,15.95
2019-05-26T22:56:37.377Z,15.87
2019-05-26T22:59:06.520Z,15.86
2019-05-26T23:01:35.755Z,15.75
2019-05-26T23:04:04.915Z,15.75
2019-05-26T23:06:34.061Z,15.74
2019-05-26T23:09:03.470Z,15.70
2019-05-26T23:11:32.612Z,15.66
2019-05-26T23:14:01.746Z,15.62
2019-05-26T23:16:30.875Z,15.61
2019-05-26T23:19:00.039Z,15.58
2019-05-26T23:21:29.213Z,15.54
2019-05-26T23:23:58.390Z,15.53
2019-05-26T23:26:27.575Z,15.50
2019-05-26T23:28:56.683Z,15.43
2019-05-26T23:31:25.809Z,15.35
2019-05-26T23:33:54.955Z,15.32
2019-05-26T23:36:24.039Z,15.34
2019-05-26T23:38:53.178Z,15.27
2019-05-26T23:41:22.299Z,15.23
2019-05-26T23:43:51.443Z,15.16
2019-05-26T23:46:20.621Z,15.15
2019-05-26T23:48:49.831Z,15.15
2019-05-26T23:51:18.964Z,15.06
2019-05-26T23:53:48.084Z,15.08
2019-05-26T23:56:17.191Z,15.10
2019-05-26T23:58:46.301Z,15.03
